createdAt,value
2018-12-16T00:02:57.488Z,13.37
2018-12-16T00:06:05.495Z,13.73
2018-12-16T00:09:24.632Z,13.10
2018-12-16T00:12:32.235Z,13.33
2018-12-16T00:15:39.730Z,13.90
2018-12-16T00:18:47.315Z,13.03
2018-12-16T00:22:07.277Z,13.67
2018-12-16T00:25:28.810Z,13.90
2018-12-16T00:28:36.657Z,13.43
2018-12-16T00:31:44.140Z,14.77
2018-12-16T00:34:52.555Z,13.33
2018-12-16T00:38:00.447Z,12.83
2018-12-16T00:41:08.534Z,12.13
2018-12-16T00:44:16.075Z,12.70
2018-12-16T00:47:23.571Z,13.07
2018-12-16T00:50:43.495Z,13.20
2018-12-16T00:54:06.028Z,13.88
2018-12-16T00:57:13.879Z,13.67
2018-12-16T01:00:35.931Z,11.77
2018-12-16T01:03:43.431Z,13.97
2018-12-16T01:06:50.948Z,13.37
2018-12-16T01:09:58.552Z,14.77
2018-12-16T01:13:17.903Z,14.47
2018-12-16T01:16:28.269Z,13.83
2018-12-16T01:19:36.272Z,14.80
2018-12-16T01:22:44.147Z,15.07
2018-12-16T01:26:03.172Z,15.37
2018-12-16T01:29:11.211Z,14.50
2018-12-16T01:32:18.812Z,14.03
2018-12-16T01:35:26.376Z,14.77
2018-12-16T01:38:33.955Z,14.20
2018-12-16T01:41:41.467Z,13.93
2018-12-16T01:44:49.076Z,14.60
2018-12-16T01:47:56.592Z,14.73
2018-12-16T01:51:18.348Z,14.30
2018-12-16T01:54:25.875Z,15.83
2018-12-16T01:57:33.429Z,14.87
2018-12-16T02:00:52.311Z,15.33
2018-12-16T02:03:59.880Z,14.67
2018-12-16T02:07:07.872Z,16.90
2018-12-16T02:10:29.396Z,15.93
2018-12-16T02:13:36.988Z,15.37
2018-12-16T02:16:44.461Z,15.73
2018-12-16T02:19:52.885Z,15.40
2018-12-16T02:23:00.352Z,15.30
2018-12-16T02:26:07.880Z,16.50
2018-12-16T02:29:28.722Z,16.67
2018-12-16T02:32:36.205Z,16.50
2018-12-16T02:35:43.693Z,16.87
2018-12-16T02:38:51.720Z,16.40
2018-12-16T02:42:10.399Z,16.87
2018-12-16T02:45:19.373Z,17.20
2018-12-16T02:48:27.364Z,16.60
2018-12-16T02:51:35.303Z,16.50
2018-12-16T02:54:42.840Z,15.97
2018-12-16T02:57:50.440Z,17.67
2018-12-16T03:00:57.997Z,16.37
2018-12-16T03:04:05.960Z,18.67
2018-12-16T03:07:33.612Z,17.67
2018-12-16T03:10:56.099Z,17.20
2018-12-16T03:14:16.575Z,16.77
2018-12-16T03:17:24.448Z,18.43
2018-12-16T03:20:32.486Z,17.70
2018-12-16T03:23:40.056Z,18.40
2018-12-16T03:26:47.525Z,18.13
2018-12-16T03:29:55.173Z,17.83
2018-12-16T03:33:02.682Z,17.53
2018-12-16T03:36:22.329Z,17.67
2018-12-16T03:39:42.958Z,18.77
2018-12-16T03:43:02.615Z,18.13
2018-12-16T03:46:22.696Z,19.47
2018-12-16T03:49:47.202Z,18.30
2018-12-16T03:52:54.697Z,17.93
2018-12-16T03:56:02.196Z,19.47
2018-12-16T03:59:19.789Z,19.07
2018-12-16T04:02:27.351Z,17.97
2018-12-16T04:05:35.023Z,18.33
2018-12-16T04:08:42.655Z,18.47
2018-12-16T04:12:04.265Z,19.57
2018-12-16T04:15:12.368Z,19.10
2018-12-16T04:18:20.636Z,19.60
2018-12-16T04:21:28.202Z,19.80
2018-12-16T04:24:35.676Z,17.97
2018-12-16T04:27:57.294Z,19.60
2018-12-16T04:31:05.113Z,19.37
2018-12-16T04:34:13.247Z,18.70
2018-12-16T04:37:30.732Z,19.07
2018-12-16T04:40:38.276Z,18.17
2018-12-16T04:43:45.844Z,18.87
2018-12-16T04:46:53.629Z,18.00
2018-12-16T04:50:16.030Z,16.53
2018-12-16T04:53:38.219Z,17.40
2018-12-16T04:56:45.859Z,17.20
2018-12-16T04:59:53.499Z,16.83
2018-12-16T05:03:01.011Z,17.00
2018-12-16T05:06:08.530Z,17.67
2018-12-16T05:09:27.708Z,17.97
2018-12-16T05:12:35.171Z,18.03
2018-12-16T05:15:42.668Z,17.67
2018-12-16T05:18:50.224Z,17.47
2018-12-16T05:21:57.804Z,18.67
2018-12-16T05:25:05.804Z,18.47
2018-12-16T05:28:13.382Z,18.20
2018-12-16T05:31:20.899Z,18.50
2018-12-16T05:34:42.551Z,18.77
2018-12-16T05:38:04.125Z,19.47
2018-12-16T05:41:23.636Z,18.77
2018-12-16T05:44:44.040Z,19.27
2018-12-16T05:47:51.531Z,17.93
2018-12-16T05:50:59.127Z,18.33
2018-12-16T05:54:06.716Z,17.77
2018-12-16T05:57:14.222Z,17.73
2018-12-16T06:00:35.553Z,18.67
2018-12-16T06:03:43.159Z,18.30
2018-12-16T06:06:50.745Z,17.67
2018-12-16T06:09:58.382Z,17.40
2018-12-16T06:13:05.919Z,16.73
2018-12-16T06:16:26.063Z,18.90
2018-12-16T06:19:47.156Z,18.00
2018-12-16T06:22:54.676Z,18.57
2018-12-16T06:26:02.174Z,18.40
2018-12-16T06:29:09.971Z,18.37
2018-12-16T06:32:17.548Z,17.67
2018-12-16T06:35:37.366Z,19.43
2018-12-16T06:38:57.049Z,18.83
2018-12-16T06:42:04.650Z,18.53
2018-12-16T06:45:12.234Z,19.93
2018-12-16T06:48:20.558Z,20.30
2018-12-16T06:51:28.028Z,19.00
2018-12-16T06:54:35.500Z,18.73
2018-12-16T06:57:43.020Z,18.97
2018-12-16T07:00:50.636Z,18.53
2018-12-16T07:03:58.119Z,19.10
2018-12-16T07:07:05.653Z,19.93
2018-12-16T07:10:13.263Z,20.43
2018-12-16T07:13:21.102Z,18.53
2018-12-16T07:16:28.950Z,20.17
2018-12-16T07:19:36.507Z,19.83
2018-12-16T07:22:44.328Z,20.10
2018-12-16T07:25:52.067Z,20.10
2018-12-16T07:28:59.747Z,19.77
2018-12-16T07:32:07.324Z,19.50
2018-12-16T07:35:27.019Z,18.53
2018-12-16T07:38:34.617Z,20.13
2018-12-16T07:41:42.459Z,20.07
2018-12-16T07:44:50.000Z,20.27
2018-12-16T07:47:57.454Z,21.20
2018-12-16T07:51:05.327Z,20.97
2018-12-16T07:54:16.029Z,20.30
2018-12-16T07:57:35.163Z,20.97
2018-12-16T08:00:54.231Z,20.13
2018-12-16T08:04:18.232Z,20.75
2018-12-16T08:07:25.808Z,20.17
2018-12-16T08:10:34.123Z,20.17
2018-12-16T08:13:41.624Z,20.03
2018-12-16T08:16:49.120Z,21.17
2018-12-16T08:20:13.679Z,21.23
2018-12-16T08:23:21.211Z,19.80
2018-12-16T08:26:28.693Z,21.10
2018-12-16T08:29:49.693Z,21.20
2018-12-16T08:33:09.547Z,20.70
2018-12-16T08:36:18.067Z,19.70
2018-12-16T08:39:25.571Z,19.87
2018-12-16T08:42:33.151Z,19.50
2018-12-16T08:49:01.775Z,19.37
2018-12-16T08:52:22.461Z,18.90
2018-12-16T08:55:43.304Z,18.27
2018-12-16T08:58:50.983Z,18.37
2018-12-16T09:01:58.436Z,18.23
2018-12-16T09:08:26.463Z,17.10
2018-12-16T09:11:47.970Z,16.73
2018-12-16T09:18:15.053Z,17.27
2018-12-16T09:21:22.500Z,16.37
2018-12-16T09:24:36.910Z,16.03
2018-12-16T09:27:51.085Z,16.57
2018-12-16T09:31:11.958Z,16.70
2018-12-16T09:34:19.480Z,16.73
2018-12-16T09:37:26.944Z,17.33
2018-12-16T09:43:51.912Z,16.33
2018-12-16T09:47:13.423Z,16.63
2018-12-16T09:50:20.951Z,15.40
2018-12-16T09:53:28.451Z,15.83
2018-12-16T09:59:55.147Z,15.37
2018-12-16T10:03:02.788Z,15.50
2018-12-16T10:09:27.976Z,15.43
2018-12-16T10:12:35.744Z,16.67
2018-12-16T10:19:01.772Z,16.00
2018-12-16T10:22:21.786Z,15.03
2018-12-16T10:25:43.639Z,15.40
2018-12-16T10:28:51.245Z,14.80
2018-12-16T10:35:17.652Z,15.23
2018-12-16T10:38:37.169Z,14.83
2018-12-16T10:41:57.244Z,13.83
2018-12-16T10:45:17.267Z,15.97
2018-12-16T10:48:38.625Z,15.27
2018-12-16T10:51:58.299Z,14.13
2018-12-16T10:55:18.517Z,15.60
2018-12-16T10:58:38.652Z,14.73
2018-12-16T11:01:58.121Z,15.13
2018-12-16T11:05:17.803Z,15.43
2018-12-16T11:08:26.151Z,14.53
2018-12-16T11:14:52.552Z,14.80
2018-12-16T11:18:11.607Z,13.63
2018-12-16T11:21:31.696Z,15.23
2018-12-16T11:24:51.712Z,14.97
2018-12-16T11:28:11.466Z,15.23
2018-12-16T11:31:32.090Z,15.90
2018-12-16T11:34:54.467Z,14.67
2018-12-16T11:38:01.904Z,14.67
2018-12-16T11:44:27.603Z,15.43
2018-12-16T11:47:48.236Z,15.27
2018-12-16T11:50:55.795Z,14.93
2018-12-16T11:54:03.240Z,15.03
2018-12-16T12:00:29.311Z,15.00
2018-12-16T12:03:50.852Z,15.17
2018-12-16T12:07:10.344Z,14.63
2018-12-16T12:10:30.482Z,14.83
2018-12-16T12:13:38.507Z,15.83
2018-12-16T12:16:46.062Z,15.20
2018-12-16T12:20:06.008Z,15.67
2018-12-16T12:23:26.479Z,15.47
2018-12-16T12:26:47.992Z,14.70
2018-12-16T12:29:55.888Z,16.00
2018-12-16T12:33:03.449Z,16.20
2018-12-16T12:36:29.002Z,14.90
2018-12-16T12:39:54.424Z,15.40
2018-12-16T12:43:17.363Z,15.18
2018-12-16T12:46:24.881Z,16.77
2018-12-16T12:49:32.423Z,16.30
2018-12-16T12:52:39.960Z,15.00
2018-12-16T12:56:01.352Z,15.28
2018-12-16T12:59:25.145Z,16.25
2018-12-16T13:02:32.637Z,15.53
2018-12-16T13:05:40.110Z,15.03
2018-12-16T13:08:47.992Z,16.37
2018-12-16T13:12:10.792Z,16.20
2018-12-16T13:15:33.195Z,15.73
2018-12-16T13:18:55.635Z,16.77
2018-12-16T13:22:17.000Z,15.93
2018-12-16T13:25:54.411Z,15.80
2018-12-16T13:29:02.002Z,16.37
2018-12-16T13:32:09.633Z,16.47
2018-12-16T13:35:17.087Z,16.57
2018-12-16T13:38:25.108Z,17.00
2018-12-16T13:41:32.692Z,17.43
2018-12-16T13:44:53.932Z,16.67
2018-12-16T13:48:01.432Z,16.03
2018-12-16T13:51:09.015Z,16.03
2018-12-16T13:54:32.284Z,16.37
2018-12-16T13:57:57.329Z,16.67
2018-12-16T14:01:05.284Z,15.67
2018-12-16T14:04:12.839Z,15.77
2018-12-16T14:07:35.665Z,17.15
2018-12-16T14:10:43.140Z,18.03
2018-12-16T14:13:51.155Z,16.63
2018-12-16T14:16:58.743Z,16.20
2018-12-16T14:20:09.012Z,16.60
2018-12-16T14:23:16.548Z,17.53
2018-12-16T14:26:24.096Z,17.50
2018-12-16T14:29:31.719Z,16.23
2018-12-16T14:32:55.504Z,17.47
2018-12-16T14:36:02.990Z,17.33
2018-12-16T14:39:10.600Z,18.20
2018-12-16T14:42:18.142Z,17.77
2018-12-16T14:45:39.116Z,17.45
2018-12-16T14:48:46.700Z,18.43
2018-12-16T14:51:54.177Z,18.13
2018-12-16T14:55:01.651Z,17.27
2018-12-16T14:58:20.479Z,19.87
2018-12-16T15:01:27.931Z,19.63
2018-12-16T15:04:35.481Z,18.90
2018-12-16T15:07:42.953Z,17.63
2018-12-16T15:10:51.367Z,18.40
2018-12-16T15:13:58.832Z,17.47
2018-12-16T15:17:06.363Z,17.60
2018-12-16T15:20:14.360Z,18.90
2018-12-16T15:23:21.867Z,18.70
2018-12-16T15:26:29.364Z,18.70
2018-12-16T15:29:36.964Z,19.20
2018-12-16T15:33:00.927Z,19.30
2018-12-16T15:36:08.439Z,19.03
2018-12-16T15:39:16.259Z,18.67
2018-12-16T15:42:23.727Z,19.07
2018-12-16T15:45:45.062Z,18.45
2018-12-16T15:48:52.583Z,18.33
2018-12-16T15:52:00.024Z,18.53
2018-12-16T15:55:11.064Z,18.83
2018-12-16T15:58:19.063Z,18.33
2018-12-16T16:01:27.047Z,18.73
2018-12-16T16:04:34.548Z,19.40
2018-12-16T16:07:42.056Z,19.47
2018-12-16T16:10:49.695Z,18.40
2018-12-16T16:14:12.603Z,18.47
2018-12-16T16:17:36.091Z,17.53
2018-12-16T16:20:43.705Z,18.57
2018-12-16T16:23:51.509Z,18.50
2018-12-16T16:26:59.099Z,18.33
2018-12-16T16:30:21.657Z,20.93
2018-12-16T16:33:43.060Z,19.30
2018-12-16T16:37:05.431Z,18.87
2018-12-16T16:40:27.971Z,19.50
2018-12-16T16:43:35.421Z,19.10
2018-12-16T16:47:05.675Z,19.07
2018-12-16T16:50:26.673Z,17.90
2018-12-16T16:53:34.116Z,18.30
2018-12-16T16:59:59.699Z,18.00
2018-12-16T17:03:07.181Z,18.17
2018-12-16T17:06:14.683Z,17.37
2018-12-16T17:09:22.399Z,18.93
2018-12-16T17:12:43.352Z,18.12
2018-12-16T17:15:53.105Z,18.47
2018-12-16T17:19:11.060Z,18.30
2018-12-16T17:22:33.481Z,17.23
2018-12-16T17:25:51.924Z,19.30
2018-12-16T17:28:59.451Z,18.07
2018-12-16T17:35:32.013Z,18.48
2018-12-16T17:38:39.549Z,17.97
2018-12-16T17:45:09.951Z,18.30
2018-12-16T17:48:30.740Z,18.40
2018-12-16T17:51:38.304Z,18.27
2018-12-16T17:54:45.769Z,17.83
2018-12-16T18:01:14.307Z,19.30
2018-12-16T18:04:33.621Z,18.80
2018-12-16T18:07:54.506Z,19.32
2018-12-16T18:11:02.080Z,19.30
2018-12-16T18:14:10.005Z,19.00
2018-12-16T18:17:29.889Z,19.80
2018-12-16T18:20:37.403Z,19.83
2018-12-16T18:23:45.329Z,19.40
2018-12-16T18:30:12.481Z,19.13
2018-12-16T18:33:20.524Z,20.67
2018-12-16T18:36:28.155Z,22.77
2018-12-16T18:39:48.404Z,20.60
2018-12-16T18:43:07.512Z,19.53
2018-12-16T18:46:26.445Z,19.93
2018-12-16T18:49:50.056Z,19.23
2018-12-16T18:52:57.670Z,19.57
2018-12-16T18:56:05.664Z,19.83
2018-12-16T18:59:13.854Z,20.90
2018-12-16T19:02:35.323Z,21.63
2018-12-16T19:05:56.455Z,21.80
2018-12-16T19:09:16.449Z,19.77
2018-12-16T19:12:23.996Z,20.73
2018-12-16T19:15:31.483Z,20.47
2018-12-16T19:21:59.752Z,20.85
2018-12-16T19:28:26.827Z,20.00
2018-12-16T19:31:35.868Z,17.50
2018-12-16T19:34:43.842Z,20.27
2018-12-16T19:41:10.868Z,19.13
2018-12-16T19:44:18.430Z,20.93
2018-12-16T19:50:47.516Z,20.25
2018-12-16T19:53:55.271Z,19.03
2018-12-16T20:00:21.902Z,19.07
2018-12-16T20:03:30.051Z,19.00
2018-12-16T20:06:42.770Z,19.70
2018-12-16T20:09:50.444Z,20.37
2018-12-16T20:16:15.756Z,19.10
2018-12-16T20:19:36.691Z,21.10
2018-12-16T20:22:57.443Z,19.73
2018-12-16T20:26:17.677Z,19.90
2018-12-16T20:29:37.417Z,20.17
2018-12-16T20:32:57.015Z,21.97
2018-12-16T20:36:20.593Z,21.40
2018-12-16T20:39:28.847Z,21.07
2018-12-16T20:42:48.670Z,21.03
2018-12-16T20:45:56.586Z,21.50
2018-12-16T20:49:04.228Z,21.27
2018-12-16T20:55:30.668Z,20.33
2018-12-16T21:01:59.234Z,20.67
2018-12-16T21:05:19.317Z,20.97
2018-12-16T21:08:39.439Z,22.60
2018-12-16T21:11:52.244Z,20.30
2018-12-16T21:15:04.935Z,20.07
2018-12-16T21:18:31.429Z,20.87
2018-12-16T21:21:38.971Z,21.40
2018-12-16T21:24:46.724Z,20.83
2018-12-16T21:31:12.516Z,21.00
2018-12-16T21:34:32.721Z,22.13
2018-12-16T21:40:57.260Z,22.30
2018-12-16T21:44:16.959Z,21.20
2018-12-16T21:47:38.347Z,22.73
2018-12-16T21:50:59.760Z,22.63
2018-12-16T21:54:20.348Z,21.83
2018-12-16T21:57:39.228Z,20.80
2018-12-16T22:01:01.664Z,21.90
2018-12-16T22:04:21.241Z,21.73
2018-12-16T22:07:41.882Z,21.67
2018-12-16T22:10:49.487Z,21.17
2018-12-16T22:13:57.063Z,21.23
2018-12-16T22:17:04.745Z,21.33
2018-12-16T22:20:12.392Z,21.17
2018-12-16T22:26:38.019Z,20.47
2018-12-16T22:29:57.848Z,20.33
2018-12-16T22:33:19.272Z,21.90
2018-12-16T22:36:27.160Z,21.33
2018-12-16T22:39:34.787Z,20.83
2018-12-16T22:42:42.310Z,21.20
2018-12-16T22:45:49.813Z,21.27
2018-12-16T22:52:15.336Z,20.57
2018-12-16T22:55:35.532Z,21.03
2018-12-16T22:58:55.395Z,20.30
2018-12-16T23:02:15.336Z,19.83
2018-12-16T23:05:35.900Z,20.57
2018-12-16T23:12:02.540Z,21.93
2018-12-16T23:15:23.424Z,20.23
2018-12-16T23:21:50.340Z,20.83
2018-12-16T23:25:11.149Z,20.87
2018-12-16T23:31:38.140Z,21.07
2018-12-16T23:34:58.652Z,21.20
2018-12-16T23:38:06.168Z,20.90
2018-12-16T23:41:13.796Z,20.40
2018-12-16T23:44:21.310Z,19.43
2018-12-16T23:47:42.273Z,21.50
2018-12-16T23:51:03.467Z,20.03
2018-12-16T23:54:10.983Z,19.53
2018-12-16T23:57:18.476Z,20.70
